Time;durP1;ratioP1;P1;durP2;ratioP2;P2;SDS_P1;SDS_P2;PMS_P1;PMS_P2;Temp;Humidity;BMP_temperature;BMP_pressure;BME280_temperature;BME280_humidity;BME280_pressure;Samples;Min_cycle;Max_cycle;Signal;HPM_P1;HPM_P2
2022/05/16 00:00:50;;;;;;;8.55;2.67;;;20.80;75.30;;;;;;5093216;23;20078;-57
2022/05/16 00:02:54;;;;;;;5.95;2.33;;;20.80;75.20;;;;;;5090616;23;20025;-56
2022/05/16 00:04:56;;;;;;;7.07;2.70;;;20.90;75.20;;;;;;5088843;23;20103;-52
2022/05/16 00:06:58;;;;;;;4.00;2.38;;;20.90;75.70;;;;;;5087424;23;20476;-56
2022/05/16 00:09:00;;;;;;;5.90;2.45;;;20.90;75.20;;;;;;5091441;23;20032;-51
2022/05/16 00:11:02;;;;;;;3.88;2.25;;;20.90;75.20;;;;;;5057108;23;20360;-56
2022/05/16 00:13:05;;;;;;;5.47;2.50;;;20.90;75.20;;;;;;5085016;23;20059;-58
2022/05/16 00:15:09;;;;;;;12.85;3.10;;;20.90;75.20;;;;;;5091549;23;20031;-56
2022/05/16 00:17:12;;;;;;;7.55;2.38;;;20.90;75.20;;;;;;5087684;23;20085;-57
2022/05/16 00:19:14;;;;;;;6.38;2.17;;;20.90;75.20;;;;;;5061186;23;20095;-55
2022/05/16 00:21:16;;;;;;;5.43;2.72;;;20.90;75.20;;;;;;5089788;23;20032;-56
2022/05/16 00:23:19;;;;;;;7.28;2.30;;;20.90;75.20;;;;;;5093144;23;20032;-60
2022/05/16 00:25:21;;;;;;;10.43;2.97;;;20.90;75.20;;;;;;5060665;23;20033;-57
2022/05/16 00:27:23;;;;;;;6.68;2.78;;;20.90;75.20;;;;;;5085018;23;20025;-58
2022/05/16 00:29:26;;;;;;;5.28;2.30;;;20.90;75.20;;;;;;5097393;23;20039;-58
2022/05/16 00:31:28;;;;;;;7.13;2.63;;;20.90;75.30;;;;;;5066952;23;20135;-58
2022/05/16 00:33:30;;;;;;;9.48;2.60;;;20.90;75.20;;;;;;5063486;23;20060;-60
2022/05/16 00:35:32;;;;;;;25.23;3.85;;;20.90;75.20;;;;;;5068849;23;20517;-57
2022/05/16 00:37:35;;;;;;;4.70;2.38;;;20.90;75.60;;;;;;5092708;23;20035;-58
2022/05/16 00:39:37;;;;;;;10.75;3.08;;;20.90;74.50;;;;;;5062434;23;20029;-55
2022/05/16 00:41:39;;;;;;;10.43;3.35;;;20.90;73.70;;;;;;5093619;23;20067;-59
2022/05/16 00:43:55;;;;;;;3.72;2.10;;;20.90;72.70;;;;;;5096640;23;20131;-59
2022/05/16 00:45:57;;;;;;;3.80;2.05;;;20.90;70.30;;;;;;5098318;23;20464;-60
2022/05/16 00:47:59;;;;;;;3.60;1.80;;;20.90;69.60;;;;;;5066392;23;20434;-60
2022/05/16 00:50:04;;;;;;;3.13;1.70;;;20.90;68.00;;;;;;5068457;23;20267;-61
2022/05/16 00:52:29;;;;;;;9.63;2.25;;;20.90;67.40;;;;;;5097911;23;20040;-61
2022/05/16 00:54:36;;;;;;;2.13;1.52;;;20.90;66.90;;;;;;5071579;23;20052;-61
2022/05/16 00:56:39;;;;;;;3.85;2.05;;;20.90;66.80;;;;;;5094910;23;20788;-60
2022/05/16 00:58:42;;;;;;;3.80;2.00;;;20.90;66.00;;;;;;5098960;23;20028;-60
2022/05/16 01:00:44;;;;;;;;;;;20.90;65.50;;;;;;5098248;23;20316;-60
2022/05/16 01:05:30;;;;;;;5.05;1.90;;;20.90;65.30;;;;;;5093966;23;20036;-62
2022/05/16 01:07:35;;;;;;;3.17;1.90;;;20.90;64.80;;;;;;5096912;23;20029;-60
2022/05/16 01:09:37;;;;;;;3.03;1.95;;;20.90;65.00;;;;;;5074876;23;20059;-60
2022/05/16 01:11:40;;;;;;;3.65;1.75;;;20.90;65.00;;;;;;5065860;23;20481;-60
2022/05/16 01:13:42;;;;;;;3.20;1.67;;;20.90;63.60;;;;;;5090210;23;20531;-61
2022/05/16 01:15:49;;;;;;;6.65;2.08;;;21.00;64.70;;;;;;5092943;23;20037;-60
2022/05/16 01:17:52;;;;;;;3.13;1.35;;;21.00;63.60;;;;;;5070692;23;20139;-60
2022/05/16 01:19:55;;;;;;;2.63;1.70;;;21.00;64.20;;;;;;5064567;23;20029;-61
2022/05/16 01:22:05;;;;;;;1.90;1.38;;;21.00;64.40;;;;;;5088872;23;20440;-61
2022/05/16 01:24:16;;;;;;;1.80;1.25;;;21.00;63.60;;;;;;5087425;23;20090;-61
2022/05/16 01:26:21;;;;;;;2.20;1.40;;;21.00;63.20;;;;;;5062259;23;20100;-57
2022/05/16 01:28:25;;;;;;;2.42;1.38;;;21.00;63.50;;;;;;5092466;23;20040;-59
2022/05/16 01:30:33;;;;;;;3.55;1.60;;;21.10;64.50;;;;;;5044102;23;20107;-59
2022/05/16 01:32:35;;;;;;;3.47;1.42;;;21.10;64.90;;;;;;5094119;23;20089;-60
2022/05/16 01:34:39;;;;;;;4.45;1.63;;;21.10;64.40;;;;;;5118275;23;20072;-58
2022/05/16 01:37:10;;;;;;;4.97;1.60;;;21.10;64.10;;;;;;5116742;23;20015;-58
2022/05/16 01:39:12;;;;;;;4.13;1.42;;;21.10;64.60;;;;;;5120329;23;20048;-59
2022/05/16 01:41:18;;;;;;;5.97;1.70;;;21.10;64.30;;;;;;5064247;23;20060;-59
2022/05/16 01:43:23;;;;;;;5.15;1.50;;;21.10;64.80;;;;;;5094499;23;20032;-57
2022/05/16 01:45:25;;;;;;;4.55;1.58;;;21.20;64.20;;;;;;5096023;23;20516;-58
2022/05/16 01:47:27;;;;;;;4.68;1.40;;;21.20;64.30;;;;;;5063718;23;20028;-59
2022/05/16 01:49:29;;;;;;;5.75;1.88;;;21.20;64.80;;;;;;5093109;23;20130;-59
2022/05/16 01:51:32;;;;;;;3.00;1.33;;;21.20;64.60;;;;;;5095240;23;20300;-60
2022/05/16 01:53:34;;;;;;;7.35;2.00;;;21.20;64.50;;;;;;5091711;23;20547;-60
2022/05/16 01:55:36;;;;;;;3.75;1.40;;;21.20;65.10;;;;;;5086009;23;20036;-59
2022/05/16 01:57:41;;;;;;;2.28;1.17;;;21.30;65.40;;;;;;5063593;23;20107;-60
2022/05/16 01:59:43;;;;;;;2.45;1.40;;;21.30;64.40;;;;;;5068376;23;20430;-60
2022/05/16 02:01:45;;;;;;;5.03;1.77;;;21.30;64.80;;;;;;5090555;23;20029;-56
2022/05/16 02:03:49;;;;;;;4.63;1.98;;;21.30;65.40;;;;;;5091141;23;20774;-58
2022/05/16 02:05:52;;;;;;;1.92;1.27;;;21.30;64.30;;;;;;5097304;23;20327;-59
2022/05/16 02:07:54;;;;;;;2.75;1.55;;;21.40;64.20;;;;;;5093050;23;20462;-57
2022/05/16 02:09:57;;;;;;;4.87;1.57;;;21.40;63.80;;;;;;5091135;23;20146;-59
2022/05/16 02:11:59;;;;;;;3.17;1.40;;;21.40;63.80;;;;;;5088452;23;20807;-58
2022/05/16 02:14:01;;;;;;;5.22;1.27;;;21.50;63.90;;;;;;5094562;23;20380;-60
2022/05/16 02:16:03;;;;;;;2.72;1.35;;;21.50;63.00;;;;;;5086836;23;20052;-60
2022/05/16 02:18:09;;;;;;;1.35;1.10;;;21.50;62.10;;;;;;5090822;23;20115;-59
2022/05/16 02:20:12;;;;;;;2.28;1.30;;;21.50;62.00;;;;;;5065013;23;20029;-59
2022/05/16 02:24:42;;;;;;;2.72;1.25;;;21.60;62.10;;;;;;5096229;23;20040;-60
2022/05/16 02:26:47;;;;;;;5.38;1.45;;;21.70;61.00;;;;;;5099842;23;20028;-60
2022/05/16 02:28:49;;;;;;;6.70;1.13;;;21.60;60.80;;;;;;5070436;23;20107;-59
2022/05/16 02:30:52;;;;;;;3.08;1.30;;;21.70;60.00;;;;;;5067067;23;20041;-60
2022/05/16 02:32:55;;;;;;;1.58;1.15;;;21.60;60.30;;;;;;5064741;23;20036;-55
2022/05/16 02:34:57;;;;;;;3.47;1.30;;;21.60;60.30;;;;;;5095833;23;20377;-53
2022/05/16 02:37:00;;;;;;;1.55;1.20;;;21.70;61.00;;;;;;5088948;23;20393;-58
2022/05/16 02:39:02;;;;;;;4.07;1.30;;;21.60;61.00;;;;;;5089943;23;20028;-58
2022/05/16 02:41:05;;;;;;;3.88;1.75;;;21.70;60.20;;;;;;5094461;23;20521;-57
2022/05/16 02:43:07;;;;;;;4.28;1.63;;;21.70;60.90;;;;;;5060703;23;20466;-58
2022/05/16 02:45:10;;;;;;;1.42;1.20;;;21.60;60.70;;;;;;5058506;23;20421;-58
2022/05/16 02:47:18;;;;;;;2.33;1.55;;;21.60;60.80;;;;;;5062198;23;20068;-58
2022/05/16 02:49:23;;;;;;;1.75;1.10;;;21.60;60.60;;;;;;5066837;23;20040;-59
2022/05/16 02:51:26;;;;;;;1.83;1.25;;;21.60;59.90;;;;;;5068396;23;20464;-58
2022/05/16 02:53:28;;;;;;;4.03;1.23;;;21.60;59.60;;;;;;5089823;23;20637;-54
2022/05/16 02:55:32;;;;;;;2.28;1.10;;;21.60;59.20;;;;;;5090046;23;20437;-56
2022/05/16 02:57:34;;;;;;;2.40;1.20;;;21.60;59.60;;;;;;5071715;23;20391;-58
2022/05/16 02:59:37;;;;;;;7.03;2.42;;;21.70;60.20;;;;;;5096546;23;20486;-57
2022/05/16 03:01:40;;;;;;;5.10;1.65;;;21.70;61.00;;;;;;5064688;23;20292;-56
2022/05/16 03:03:42;;;;;;;4.32;1.42;;;21.70;62.00;;;;;;5096570;23;20031;-57
2022/05/16 03:05:44;;;;;;;2.33;1.48;;;21.80;61.40;;;;;;5099386;23;20118;-57
2022/05/16 03:07:46;;;;;;;4.28;2.38;;;21.80;60.80;;;;;;5063371;23;20070;-58
2022/05/16 03:09:49;;;;;;;3.83;2.60;;;21.90;60.20;;;;;;5094425;23;20033;-59
2022/05/16 03:11:51;;;;;;;4.18;2.45;;;21.90;60.30;;;;;;5100617;23;20033;-57
2022/05/16 03:13:53;;;;;;;5.55;2.80;;;21.90;59.40;;;;;;5095676;23;20124;-56
2022/05/16 03:15:55;;;;;;;4.78;3.75;;;22.00;59.80;;;;;;5094776;23;20719;-59
2022/05/16 03:17:58;;;;;;;8.10;5.05;;;22.00;59.90;;;;;;5098106;23;20401;-59
2022/05/16 03:20:02;;;;;;;5.55;4.45;;;22.00;59.70;;;;;;5095304;23;20047;-57
2022/05/16 03:22:06;;;;;;;6.03;4.22;;;22.10;58.70;;;;;;5065516;23;20028;-58
2022/05/16 03:24:08;;;;;;;4.25;3.17;;;22.10;58.90;;;;;;5094601;23;20028;-55
2022/05/16 03:26:11;;;;;;;4.47;3.13;;;22.20;59.00;;;;;;5095680;23;20032;-58
2022/05/16 03:28:13;;;;;;;7.50;3.80;;;22.30;59.30;;;;;;5063180;23;20029;-59
2022/05/16 03:30:15;;;;;;;6.30;5.20;;;22.30;59.20;;;;;;5068214;23;20490;-59
2022/05/16 03:32:18;;;;;;;6.68;3.42;;;22.30;59.70;;;;;;5099338;23;20052;-60
2022/05/16 03:34:20;;;;;;;3.80;2.70;;;22.40;59.10;;;;;;5094418;23;20032;-56
2022/05/16 03:36:22;;;;;;;4.72;2.67;;;22.40;58.50;;;;;;5067236;23;20492;-58
2022/05/16 03:40:46;;;;;;;3.88;2.58;;;22.60;58.30;;;;;;5091611;23;20028;-57
2022/05/16 03:42:51;;;;;;;3.90;2.20;;;22.60;57.80;;;;;;5095854;23;20024;-60
2022/05/16 03:44:53;;;;;;;5.32;3.70;;;22.70;57.40;;;;;;5098416;23;20032;-60
2022/05/16 03:46:55;;;;;;;5.53;3.10;;;22.70;58.00;;;;;;5093355;23;20133;-60
2022/05/16 03:48:57;;;;;;;7.97;3.75;;;22.70;57.30;;;;;;5091104;23;20396;-60
2022/05/16 03:51:00;;;;;;;11.15;3.08;;;22.80;58.40;;;;;;5097987;23;20041;-61
2022/05/16 03:53:03;;;;;;;10.90;2.83;;;22.80;57.50;;;;;;5093637;23;20070;-62
2022/05/16 03:55:08;;;;;;;4.97;2.80;;;22.80;57.20;;;;;;5066838;23;20046;-61
2022/05/16 03:57:10;;;;;;;4.25;2.22;;;22.80;57.30;;;;;;5093255;23;20593;-63
2022/05/16 03:59:12;;;;;;;4.78;2.50;;;22.90;57.80;;;;;;5098572;23;20025;-63
2022/05/16 04:01:16;;;;;;;4.60;2.63;;;22.90;58.10;;;;;;5087748;23;20036;-62
2022/05/16 04:03:17;;;;;;;;;;;23.00;58.00;;;;;;5090202;23;20121;-59
2022/05/16 04:05:24;;;;;;;2.70;1.52;;;23.00;58.20;;;;;;5095696;23;20477;-60
2022/05/16 04:07:27;;;;;;;12.57;2.75;;;23.10;58.10;;;;;;5066652;23;20779;-59
2022/05/16 04:12:26;;;;;;;5.32;4.10;;;23.20;57.90;;;;;;5067631;23;20040;-59
2022/05/16 04:14:29;;;;;;;4.30;3.30;;;23.30;58.80;;;;;;5092245;23;20421;-58
2022/05/16 04:16:31;;;;;;;5.15;4.00;;;23.30;56.80;;;;;;5093586;23;20532;-58
2022/05/16 04:18:35;;;;;;;4.47;3.33;;;23.30;58.50;;;;;;5098735;23;20941;-60
2022/05/16 04:20:37;;;;;;;3.00;1.73;;;23.40;58.80;;;;;;5095810;23;20440;-60
2022/05/16 04:22:39;;;;;;;2.08;1.38;;;23.40;55.40;;;;;;5088226;23;20032;-59
2022/05/16 04:24:42;;;;;;;3.00;1.83;;;23.40;56.00;;;;;;5092307;23;20035;-58
2022/05/16 04:26:44;;;;;;;2.92;1.45;;;23.50;57.00;;;;;;5065326;23;20032;-59
2022/05/16 04:28:46;;;;;;;4.00;1.38;;;23.60;57.60;;;;;;5062529;23;20035;-58
2022/05/16 04:30:49;;;;;;;5.57;1.60;;;23.60;57.80;;;;;;5060706;23;20060;-59
2022/05/16 04:32:51;;;;;;;2.63;1.10;;;23.70;58.70;;;;;;5045672;23;20544;-60
2022/05/16 04:34:54;;;;;;;3.03;1.20;;;23.80;57.60;;;;;;5066903;23;20392;-59
2022/05/16 04:36:56;;;;;;;2.80;1.33;;;23.90;57.50;;;;;;5090168;23;20040;-59
2022/05/16 04:38:58;;;;;;;1.67;0.90;;;23.90;57.80;;;;;;5088922;23;20353;-61
2022/05/16 04:43:21;;;;;;;3.20;1.10;;;24.10;57.90;;;;;;5066914;23;20025;-59
2022/05/16 04:45:29;;;;;;;2.75;1.15;;;24.10;58.30;;;;;;5092909;23;20421;-59
2022/05/16 04:47:31;;;;;;;1.77;1.08;;;24.20;58.20;;;;;;5085344;23;20135;-60
2022/05/16 04:49:34;;;;;;;6.60;1.10;;;24.30;58.20;;;;;;5062671;23;20091;-59
2022/05/16 04:51:36;;;;;;;;;;;24.30;57.20;;;;;;5068235;23;20434;-59
2022/05/16 04:53:39;;;;;;;1.67;0.90;;;24.30;57.10;;;;;;5089316;23;20404;-58
2022/05/16 04:55:41;;;;;;;5.65;1.17;;;24.40;57.20;;;;;;5088142;23;20522;-58
2022/05/16 04:57:44;;;;;;;4.97;1.10;;;24.40;57.90;;;;;;5089098;23;20036;-59
2022/05/16 04:59:49;;;;;;;2.85;0.90;;;24.40;57.90;;;;;;5095639;23;20033;-61
2022/05/16 05:01:52;;;;;;;1.63;0.93;;;24.50;57.30;;;;;;5090783;23;20807;-59
2022/05/16 05:03:54;;;;;;;4.47;1.20;;;24.60;58.00;;;;;;5088875;23;20535;-59
2022/05/16 05:05:57;;;;;;;4.13;1.00;;;24.60;58.30;;;;;;5043286;23;20522;-59
2022/05/16 05:07:59;;;;;;;2.85;1.00;;;24.60;57.70;;;;;;5065350;23;20274;-59
2022/05/16 05:14:44;;;;;;;2.72;1.17;;;24.80;57.20;;;;;;5070245;23;20323;-61
2022/05/16 05:16:46;;;;;;;1.60;1.30;;;24.80;55.40;;;;;;5066475;23;20040;-63
2022/05/16 05:18:49;;;;;;;6.63;1.30;;;24.80;55.60;;;;;;5090961;23;20028;-59
2022/05/16 05:20:51;;;;;;;2.47;1.00;;;24.80;54.70;;;;;;5092589;23;20574;-59
2022/05/16 05:22:53;;;;;;;1.27;0.98;;;24.80;55.90;;;;;;5070514;23;20120;-60
2022/05/16 05:24:56;;;;;;;2.13;1.08;;;24.80;56.50;;;;;;5093078;23;20098;-61
2022/05/16 05:26:58;;;;;;;2.65;1.13;;;24.80;55.60;;;;;;5064605;23;20257;-63
2022/05/16 05:29:01;;;;;;;2.20;1.10;;;24.80;56.50;;;;;;5097874;23;20428;-60
2022/05/16 05:31:03;;;;;;;2.85;1.02;;;24.80;57.30;;;;;;5066560;23;20549;-58
2022/05/16 05:33:06;;;;;;;4.55;1.10;;;24.80;57.60;;;;;;5094091;23;20032;-60
2022/05/16 05:35:09;;;;;;;3.37;0.80;;;24.80;57.90;;;;;;5096982;23;20059;-61
2022/05/16 05:37:11;;;;;;;;;;;24.80;58.20;;;;;;5069944;23;20894;-61
2022/05/16 05:39:13;;;;;;;3.15;1.10;;;24.80;57.90;;;;;;5067465;23;19998;-61
2022/05/16 05:41:16;;;;;;;18.75;1.38;;;24.80;57.80;;;;;;5064551;23;20040;-59
2022/05/16 05:43:18;;;;;;;6.28;1.33;;;24.80;57.90;;;;;;5092416;23;20491;-60
2022/05/16 05:45:20;;;;;;;3.17;0.80;;;24.80;57.40;;;;;;5062047;23;20460;-59
2022/05/16 05:47:23;;;;;;;3.50;0.70;;;24.80;57.80;;;;;;5094632;23;20040;-60
2022/05/16 05:49:25;;;;;;;2.10;0.90;;;24.70;58.20;;;;;;5096128;23;20033;-66
2022/05/16 05:51:27;;;;;;;1.97;0.90;;;24.70;58.60;;;;;;5068252;23;20562;-64
2022/05/16 05:53:30;;;;;;;1.27;0.77;;;24.70;58.70;;;;;;5066157;23;20341;-64
2022/05/16 05:55:32;;;;;;;1.48;0.75;;;24.70;58.80;;;;;;5092920;23;20422;-62
2022/05/16 05:57:35;;;;;;;1.03;0.60;;;24.60;58.60;;;;;;5096095;23;20147;-63
2022/05/16 05:59:37;;;;;;;2.22;0.60;;;24.60;58.70;;;;;;5091107;23;20024;-64
2022/05/16 06:01:40;;;;;;;3.50;0.68;;;24.60;59.00;;;;;;5091523;23;20679;-61
2022/05/16 06:03:42;;;;;;;1.17;0.60;;;24.60;59.20;;;;;;5096564;23;20043;-63
2022/05/16 06:05:44;;;;;;;1.23;0.87;;;24.60;59.60;;;;;;5065622;23;20206;-64
2022/05/16 06:07:47;;;;;;;0.85;0.50;;;24.60;59.20;;;;;;5065388;23;20037;-63
2022/05/16 06:09:49;;;;;;;0.70;0.40;;;24.60;59.80;;;;;;5065806;23;20029;-63
2022/05/16 06:11:52;;;;;;;0.63;0.53;;;24.60;59.90;;;;;;5067021;23;20051;-59
2022/05/16 06:13:55;;;;;;;2.77;0.90;;;24.60;59.50;;;;;;5090272;23;20024;-62
2022/05/16 06:15:57;;;;;;;2.75;0.77;;;24.60;59.60;;;;;;5088045;23;20328;-60
2022/05/16 06:18:00;;;;;;;3.83;0.93;;;24.50;59.00;;;;;;5037427;23;21085;-62
2022/05/16 06:20:07;;;;;;;3.45;1.20;;;24.50;59.30;;;;;;5061792;23;20449;-61
2022/05/16 06:22:10;;;;;;;4.00;0.70;;;24.50;59.40;;;;;;5056456;23;20053;-61
2022/05/16 06:26:33;;;;;;;5.22;1.10;;;24.50;59.50;;;;;;5060594;23;20347;-61
2022/05/16 06:28:38;;;;;;;1.48;0.85;;;24.50;58.90;;;;;;5091011;23;20052;-62
2022/05/16 06:30:44;;;;;;;2.00;0.77;;;24.60;59.30;;;;;;5094097;23;20571;-59
2022/05/16 06:32:49;;;;;;;3.55;1.58;;;24.60;59.80;;;;;;5092414;23;20354;-60
2022/05/16 06:34:52;;;;;;;41.55;3.65;;;24.60;60.10;;;;;;5088259;23;20528;-59
2022/05/16 06:36:55;;;;;;;20.05;2.47;;;24.60;60.30;;;;;;5060748;23;20334;-58
2022/05/16 06:38:57;;;;;;;17.27;2.77;;;24.60;59.90;;;;;;5095738;23;20369;-59
2022/05/16 06:41:00;;;;;;;18.77;2.27;;;24.60;60.00;;;;;;5091405;23;20024;-58
2022/05/16 06:43:02;;;;;;;5.38;1.02;;;24.70;60.10;;;;;;5062388;23;20720;-58
2022/05/16 06:45:06;;;;;;;4.78;0.88;;;24.90;59.70;;;;;;5093261;23;20028;-59
2022/05/16 06:47:08;;;;;;;4.20;0.82;;;25.00;59.40;;;;;;5092640;23;20071;-58
2022/05/16 06:49:11;;;;;;;2.35;0.90;;;24.90;59.40;;;;;;5088346;23;20034;-59
2022/05/16 06:51:13;;;;;;;1.95;0.47;;;24.80;59.70;;;;;;5088394;23;20035;-58
2022/05/16 06:53:18;;;;;;;0.88;0.57;;;24.70;59.90;;;;;;5094179;23;20068;-58
2022/05/16 06:55:21;;;;;;;3.65;0.75;;;24.70;60.10;;;;;;5090653;23;20028;-58
2022/05/16 06:57:23;;;;;;;1.52;0.50;;;24.60;60.40;;;;;;5090187;23;20586;-59
2022/05/16 06:59:25;;;;;;;2.78;0.68;;;24.50;60.40;;;;;;5091516;23;20033;-59
2022/05/16 07:01:27;;;;;;;0.77;0.60;;;24.50;60.60;;;;;;5065465;23;20463;-59
2022/05/16 07:03:29;;;;;;;2.85;0.98;;;24.40;60.70;;;;;;5088891;23;20032;-59
2022/05/16 07:05:32;;;;;;;1.35;0.90;;;24.40;61.00;;;;;;5087569;23;20448;-58
2022/05/16 07:07:34;;;;;;;3.97;2.33;;;24.30;61.10;;;;;;5070279;23;20134;-59
2022/05/16 07:09:40;;;;;;;11.85;4.75;;;24.30;61.20;;;;;;5062278;23;20175;-59
2022/05/16 07:11:42;;;;;;;23.23;10.30;;;24.30;61.40;;;;;;5062313;23;20616;-59
2022/05/16 07:13:44;;;;;;;44.30;20.58;;;24.20;61.80;;;;;;5065386;23;20580;-59
2022/05/16 07:15:46;;;;;;;46.83;22.40;;;24.20;61.70;;;;;;5071389;23;20038;-58
2022/05/16 07:17:49;;;;;;;62.43;29.27;;;24.20;61.80;;;;;;5091088;23;20047;-58
2022/05/16 07:19:51;;;;;;;65.85;28.67;;;24.10;62.00;;;;;;5092156;23;20052;-59
2022/05/16 07:21:53;;;;;;;60.80;28.30;;;24.10;62.00;;;;;;5098090;23;20036;-58
2022/05/16 07:23:55;;;;;;;62.78;28.80;;;24.10;62.10;;;;;;5091192;23;20777;-58
2022/05/16 07:28:18;;;;;;;54.33;25.17;;;24.00;62.20;;;;;;5092419;23;20025;-59
2022/05/16 07:30:22;;;;;;;44.25;19.80;;;24.00;62.40;;;;;;5088337;23;20457;-59
2022/05/16 07:32:32;;;;;;;41.83;21.27;;;24.00;62.50;;;;;;5096187;23;20116;-59
2022/05/16 07:34:34;;;;;;;37.55;18.92;;;24.00;62.70;;;;;;5067001;23;20035;-59
2022/05/16 07:36:36;;;;;;;36.13;18.08;;;23.90;62.80;;;;;;5091049;23;20384;-59
2022/05/16 07:38:38;;;;;;;30.98;15.48;;;23.90;62.90;;;;;;5088174;23;20028;-59
2022/05/16 07:40:40;;;;;;;29.63;14.27;;;23.90;63.10;;;;;;5071582;23;20028;-59
2022/05/16 07:42:43;;;;;;;24.02;13.25;;;23.80;63.20;;;;;;5093569;23;20873;-59
2022/05/16 07:44:50;;;;;;;26.63;12.45;;;23.80;63.30;;;;;;5089948;23;20024;-58
2022/05/16 07:46:52;;;;;;;22.02;11.27;;;23.80;63.40;;;;;;5091601;23;20095;-59
2022/05/16 07:48:54;;;;;;;22.73;11.13;;;23.80;63.50;;;;;;5071414;23;20165;-58
2022/05/16 07:50:56;;;;;;;18.67;9.43;;;23.80;63.50;;;;;;5092910;23;20028;-59
2022/05/16 07:52:58;;;;;;;20.80;9.80;;;23.70;63.40;;;;;;5061844;23;20048;-59
2022/05/16 07:55:01;;;;;;;20.23;8.85;;;23.80;63.50;;;;;;5095205;23;20033;-60
2022/05/16 07:57:04;;;;;;;25.42;8.68;;;23.70;63.50;;;;;;5065805;23;20029;-61
2022/05/16 07:59:06;;;;;;;20.35;8.30;;;23.70;63.90;;;;;;5086500;23;20039;-62
2022/05/16 08:01:08;;;;;;;14.80;7.80;;;23.70;64.10;;;;;;5088731;23;20273;-59
2022/05/16 08:03:18;;;;;;;16.50;7.13;;;23.70;64.20;;;;;;5093060;23;20086;-60
2022/05/16 08:05:21;;;;;;;13.52;6.45;;;23.80;64.10;;;;;;5064628;23;20433;-59
2022/05/16 08:07:23;;;;;;;11.88;5.20;;;23.80;64.00;;;;;;5087193;23;20357;-59
2022/05/16 08:11:45;;;;;;;12.25;5.28;;;23.80;63.70;;;;;;5085940;23;20812;-61
2022/05/16 08:13:48;;;;;;;9.90;4.43;;;23.80;63.80;;;;;;5090139;23;20031;-60
2022/05/16 08:15:51;;;;;;;10.55;4.60;;;23.80;63.70;;;;;;5095949;23;20503;-60
2022/05/16 08:17:53;;;;;;;6.35;3.28;;;23.80;63.50;;;;;;5089934;23;20024;-62
2022/05/16 08:19:56;;;;;;;12.60;3.95;;;23.80;63.50;;;;;;5064252;23;20103;-63
2022/05/16 08:21:58;;;;;;;7.50;3.20;;;23.80;63.30;;;;;;5096833;23;20529;-63
2022/05/16 08:24:01;;;;;;;5.45;2.97;;;23.80;63.50;;;;;;5093875;23;20520;-63
2022/05/16 08:26:04;;;;;;;5.55;2.60;;;23.70;63.40;;;;;;5064968;23;20521;-61
2022/05/16 08:28:07;;;;;;;6.88;2.55;;;23.70;63.40;;;;;;5062944;23;20398;-63
2022/05/16 08:30:11;;;;;;;5.75;2.22;;;23.70;63.40;;;;;;5094540;23;20206;-63
2022/05/16 08:32:19;;;;;;;4.50;1.90;;;23.70;63.20;;;;;;5064700;23;20044;-62
2022/05/16 08:34:22;;;;;;;6.80;2.35;;;23.60;63.10;;;;;;5063587;23;20084;-61
2022/05/16 08:41:10;;;;;;;5.88;2.08;;;23.60;62.50;;;;;;5091289;23;20511;-61
2022/05/16 08:43:36;;;;;;;5.85;1.85;;;23.60;62.50;;;;;;5065438;23;20481;-58
2022/05/16 08:45:57;;;;;;;4.30;1.70;;;23.60;62.40;;;;;;5067674;23;20081;-59
2022/05/16 08:48:22;;;;;;;3.38;1.67;;;23.60;62.30;;;;;;5089094;23;20199;-60
2022/05/16 08:50:35;;;;;;;2.67;1.65;;;23.60;62.00;;;;;;5083735;23;20036;-60
2022/05/16 08:52:44;;;;;;;3.37;1.87;;;23.50;61.80;;;;;;5086042;23;20577;-61
2022/05/16 08:54:57;;;;;;;3.22;1.60;;;23.60;61.40;;;;;;5086317;23;20324;-60
2022/05/16 08:57:03;;;;;;;2.42;1.45;;;23.50;61.60;;;;;;5088276;23;20035;-62
2022/05/16 08:59:09;;;;;;;5.45;2.00;;;23.50;61.30;;;;;;5087097;23;20302;-58
2022/05/16 09:01:44;;;;;;;3.70;1.60;;;23.50;61.60;;;;;;5061154;23;20388;-57
2022/05/16 09:03:53;;;;;;;4.10;1.23;;;23.40;61.50;;;;;;5068852;23;20025;-57
2022/05/16 09:06:01;;;;;;;2.88;1.23;;;23.50;61.90;;;;;;5095170;23;20547;-59
2022/05/16 09:08:08;;;;;;;3.55;1.33;;;23.50;62.80;;;;;;5091390;23;20032;-56
2022/05/16 09:10:23;;;;;;;6.63;1.45;;;23.40;62.50;;;;;;5064386;23;20036;-57
2022/05/16 09:12:54;;;;;;;4.80;1.30;;;23.40;62.60;;;;;;5090109;23;20131;-56
2022/05/16 09:15:02;;;;;;;2.60;1.10;;;23.40;62.70;;;;;;5033201;23;20349;-57
2022/05/16 09:17:29;;;;;;;1.27;0.90;;;23.40;62.90;;;;;;5092869;23;20110;-54
2022/05/16 09:19:31;;;;;;;1.90;0.70;;;23.40;63.00;;;;;;5018005;23;20465;-56
2022/05/16 09:21:39;;;;;;;2.50;1.05;;;23.40;63.30;;;;;;5090043;23;20059;-57
2022/05/16 09:23:53;;;;;;;1.67;0.68;;;23.30;63.40;;;;;;5093908;23;20569;-56
2022/05/16 09:26:10;;;;;;;2.97;1.00;;;23.30;63.50;;;;;;5092238;23;20037;-58
2022/05/16 09:30:33;;;;;;;3.08;0.80;;;23.30;63.60;;;;;;5064417;23;20029;-58
2022/05/16 09:32:40;;;;;;;1.95;0.70;;;23.30;63.60;;;;;;5064757;23;20489;-54
2022/05/16 09:34:42;;;;;;;2.95;0.80;;;23.30;63.60;;;;;;5093461;23;20349;-58
2022/05/16 09:36:50;;;;;;;4.25;1.20;;;23.30;63.60;;;;;;5093627;23;20566;-58
2022/05/16 09:38:53;;;;;;;1.00;0.68;;;23.30;63.60;;;;;;5091193;23;20570;-54
2022/05/16 09:41:23;;;;;;;1.75;0.80;;;23.30;64.20;;;;;;5063425;23;20032;-58
2022/05/16 09:43:27;;;;;;;2.35;0.88;;;23.30;63.50;;;;;;5069567;23;20556;-55
2022/05/16 09:45:30;;;;;;;1.02;0.60;;;23.30;63.60;;;;;;5091164;23;20837;-56
2022/05/16 09:47:33;;;;;;;2.08;1.20;;;23.30;63.50;;;;;;5088479;23;20068;-49
2022/05/16 09:49:36;;;;;;;4.45;0.88;;;23.30;63.50;;;;;;5091074;23;20036;-53
2022/05/16 09:51:53;;;;;;;3.10;1.20;;;23.20;63.60;;;;;;5093427;23;20056;-54
2022/05/16 09:54:09;;;;;;;6.93;2.03;;;23.20;63.60;;;;;;5094999;23;20032;-56
2022/05/16 09:56:21;;;;;;;3.50;0.90;;;23.20;63.60;;;;;;5091551;23;20469;-53
2022/05/16 09:58:28;;;;;;;4.82;0.80;;;23.20;63.60;;;;;;5093067;23;20329;-57
2022/05/16 10:00:43;;;;;;;0.98;0.60;;;23.20;63.60;;;;;;5096404;23;20142;-54
2022/05/16 10:02:56;;;;;;;2.70;1.20;;;23.20;63.50;;;;;;5067307;23;20044;-54
2022/05/16 10:05:31;;;;;;;5.57;1.27;;;23.20;63.60;;;;;;5096248;23;20330;-50
2022/05/16 10:07:49;;;;;;;6.15;1.05;;;23.20;63.60;;;;;;5016123;23;20630;-56
2022/05/16 10:09:53;;;;;;;2.40;1.00;;;23.20;63.60;;;;;;5076263;23;20080;-55
2022/05/16 10:11:57;;;;;;;5.55;1.13;;;23.10;63.50;;;;;;5096587;23;20480;-52
2022/05/16 10:14:00;;;;;;;1.05;0.50;;;23.10;63.40;;;;;;5094345;23;20575;-55
2022/05/16 10:16:06;;;;;;;2.70;0.80;;;23.10;64.30;;;;;;5096085;23;20394;-58
2022/05/16 10:18:13;;;;;;;0.88;0.60;;;23.10;63.50;;;;;;5099745;23;20475;-57
2022/05/16 10:20:22;;;;;;;0.93;0.55;;;23.10;63.20;;;;;;5070950;23;20605;-57
2022/05/16 10:22:25;;;;;;;0.88;0.73;;;23.00;62.90;;;;;;5065797;23;20497;-57
2022/05/16 10:24:35;;;;;;;1.75;0.52;;;23.00;62.70;;;;;;5064820;23;20821;-55
2022/05/16 10:26:50;;;;;;;1.35;0.55;;;23.00;63.00;;;;;;5089898;23;20036;-53
2022/05/16 10:28:59;;;;;;;1.40;0.70;;;23.00;62.60;;;;;;5089808;23;20039;-57
2022/05/16 10:33:26;;;;;;;1.33;0.47;;;23.00;62.40;;;;;;5063334;23;20621;-52
2022/05/16 10:35:32;;;;;;;1.85;0.40;;;23.00;62.80;;;;;;5064298;23;20478;-55
2022/05/16 10:37:38;;;;;;;3.88;0.77;;;23.00;62.90;;;;;;5090810;23;20453;-55
2022/05/16 10:40:02;;;;;;;1.55;0.70;;;22.90;62.90;;;;;;5067425;23;20385;-56
2022/05/16 10:42:13;;;;;;;2.05;0.60;;;22.90;63.30;;;;;;5066028;23;20444;-59
2022/05/16 10:44:35;;;;;;;0.50;0.50;;;22.90;63.30;;;;;;5062800;23;20060;-56
2022/05/16 10:46:44;;;;;;;2.72;0.80;;;22.90;63.00;;;;;;5094996;23;20124;-57
2022/05/16 10:48:50;;;;;;;1.33;0.73;;;22.90;63.20;;;;;;5091735;23;20028;-57
2022/05/16 10:51:03;;;;;;;0.65;0.40;;;22.90;63.10;;;;;;5090138;23;20432;-55
2022/05/16 10:53:39;;;;;;;0.53;0.43;;;22.90;63.30;;;;;;5090910;23;20377;-57
2022/05/16 10:55:53;;;;;;;3.47;0.77;;;22.90;63.30;;;;;;5094010;23;20510;-58
2022/05/16 10:58:15;;;;;;;1.98;0.60;;;22.80;63.40;;;;;;5064886;23;20115;-57
2022/05/16 11:00:21;;;;;;;0.98;0.50;;;22.80;63.30;;;;;;5091205;23;20173;-56
2022/05/16 11:02:53;;;;;;;1.00;0.60;;;22.80;63.20;;;;;;5092056;23;20426;-59
2022/05/16 11:05:23;;;;;;;1.25;0.70;;;22.70;63.20;;;;;;5097998;23;20425;-54
2022/05/16 11:07:53;;;;;;;3.70;0.60;;;22.70;63.20;;;;;;5066391;23;20029;-51
2022/05/16 11:10:04;;;;;;;3.28;0.85;;;22.70;63.20;;;;;;5097641;23;20195;-56
2022/05/16 11:12:18;;;;;;;1.52;0.73;;;22.70;63.00;;;;;;5097383;23;20776;-56
2022/05/16 11:14:33;;;;;;;3.40;0.88;;;22.70;63.00;;;;;;5095798;23;20539;-52
2022/05/16 11:16:38;;;;;;;2.38;0.82;;;22.70;63.00;;;;;;5095021;23;20765;-57
2022/05/16 11:18:43;;;;;;;1.67;0.57;;;22.70;62.90;;;;;;5069683;23;20029;-54
2022/05/16 11:21:09;;;;;;;3.55;0.50;;;22.70;63.20;;;;;;5065044;23;20540;-52
2022/05/16 11:23:36;;;;;;;3.78;1.02;;;22.70;63.10;;;;;;5067657;23;20123;-56
2022/05/16 11:26:05;;;;;;;2.35;0.70;;;22.70;63.10;;;;;;5064620;23;20449;-57